createdAt,value
2022-08-14T00:02:24.492Z,11.38
2022-08-14T00:07:22.665Z,10.95
2022-08-14T00:09:56.354Z,11.02
2022-08-14T00:12:42.851Z,12.32
2022-08-14T00:15:43.393Z,12.18
2022-08-14T00:18:30.756Z,11.95
2022-08-14T00:21:03.141Z,11.80
2022-08-14T00:23:31.111Z,11.07
2022-08-14T00:26:06.773Z,12.90
2022-08-14T00:28:37.122Z,13.05
2022-08-14T00:31:06.718Z,12.20
2022-08-14T00:33:50.776Z,12.95
2022-08-14T00:36:35.224Z,12.68
2022-08-14T00:39:18.056Z,12.38
2022-08-14T00:41:47.497Z,12.32
2022-08-14T00:44:21.528Z,12.40
2022-08-14T00:47:03.706Z,12.10
2022-08-14T00:49:38.086Z,11.90
2022-08-14T00:52:14.112Z,11.13
2022-08-14T00:54:46.148Z,11.55
2022-08-14T00:57:13.713Z,12.07
2022-08-14T00:59:41.495Z,11.13
2022-08-14T01:02:09.693Z,12.07
2022-08-14T01:04:54.478Z,11.23
2022-08-14T01:07:24.645Z,12.85
2022-08-14T01:09:58.946Z,14.25
2022-08-14T01:12:29.650Z,13.77
2022-08-14T01:15:02.815Z,13.45
2022-08-14T01:17:51.910Z,13.25
2022-08-14T01:20:56.100Z,13.35
2022-08-14T01:23:24.544Z,14.35
2022-08-14T01:26:11.667Z,13.75
2022-08-14T01:28:56.552Z,13.63
2022-08-14T01:31:27.439Z,13.18
2022-08-14T01:35:18.699Z,14.02
2022-08-14T01:36:53.847Z,17.10
2022-08-14T01:39:21.461Z,13.40
2022-08-14T01:41:58.326Z,13.95
2022-08-14T01:44:32.551Z,14.32
2022-08-14T01:47:11.641Z,14.88
2022-08-14T01:49:46.088Z,13.88
2022-08-14T01:52:34.278Z,15.25
2022-08-14T01:55:16.125Z,15.30
2022-08-14T01:57:49.410Z,15.48
2022-08-14T02:00:36.107Z,16.10
2022-08-14T02:03:06.834Z,16.00
2022-08-14T02:05:38.344Z,15.90
2022-08-14T02:08:09.791Z,15.32
2022-08-14T02:10:46.960Z,15.70
2022-08-14T02:13:16.926Z,15.98
2022-08-14T02:15:45.798Z,15.38
2022-08-14T02:18:16.525Z,17.23
2022-08-14T02:20:47.787Z,15.50
2022-08-14T02:23:28.940Z,15.15
2022-08-14T02:26:24.035Z,17.77
2022-08-14T02:28:57.893Z,17.75
2022-08-14T02:31:42.238Z,17.45
2022-08-14T02:34:22.564Z,17.77
2022-08-14T02:37:05.268Z,18.52
2022-08-14T02:39:45.764Z,18.33
2022-08-14T02:42:17.765Z,17.85
2022-08-14T02:44:51.240Z,17.23
2022-08-14T02:47:21.009Z,16.10
2022-08-14T02:49:54.583Z,15.93
2022-08-14T02:52:55.599Z,17.88
2022-08-14T02:55:15.599Z,17.20
2022-08-14T02:57:58.194Z,17.67
2022-08-14T03:00:33.196Z,17.02
2022-08-14T03:03:02.794Z,16.85
2022-08-14T03:05:37.105Z,17.42
2022-08-14T03:08:15.331Z,17.27
2022-08-14T03:10:48.662Z,17.27
2022-08-14T03:13:20.909Z,17.15
2022-08-14T03:15:56.099Z,17.85
2022-08-14T03:18:30.767Z,17.38
2022-08-14T03:21:00.359Z,17.05
2022-08-14T03:23:28.055Z,18.45
2022-08-14T03:25:56.278Z,18.98
2022-08-14T03:28:33.038Z,17.65
2022-08-14T03:31:01.906Z,18.23
2022-08-14T03:33:37.445Z,18.10
2022-08-14T03:37:39.107Z,18.80
2022-08-14T03:39:14.042Z,18.00
2022-08-14T03:41:48.568Z,18.38
2022-08-14T03:45:25.297Z,18.30
2022-08-14T03:47:03.959Z,18.20
2022-08-14T03:49:33.930Z,18.48
2022-08-14T03:52:04.930Z,21.48
2022-08-14T03:54:52.617Z,21.52
2022-08-14T03:57:22.703Z,20.00
2022-08-14T03:59:50.508Z,19.60
2022-08-14T04:02:32.641Z,17.95
2022-08-14T04:05:12.814Z,19.13
2022-08-14T04:08:00.083Z,18.45
2022-08-14T04:10:32.108Z,18.13
2022-08-14T04:15:55.773Z,17.85
2022-08-14T04:18:21.072Z,18.77
2022-08-14T04:20:54.378Z,18.83
2022-08-14T04:23:29.465Z,21.95
2022-08-14T04:26:02.672Z,19.35
2022-08-14T04:29:08.386Z,19.02
2022-08-14T04:31:24.760Z,18.63
2022-08-14T04:34:04.186Z,17.90
2022-08-14T04:36:53.313Z,18.35
2022-08-14T04:39:46.556Z,18.77
2022-08-14T04:42:33.089Z,18.83
2022-08-14T04:45:01.290Z,19.08
2022-08-14T04:47:47.320Z,18.48
2022-08-14T04:50:31.330Z,19.13
2022-08-14T04:53:13.031Z,18.60
2022-08-14T04:55:53.648Z,18.88
2022-08-14T04:58:33.069Z,18.75
2022-08-14T05:01:04.242Z,17.92
2022-08-14T05:03:33.563Z,19.13
2022-08-14T05:06:04.624Z,17.75
2022-08-14T05:08:57.291Z,17.58
2022-08-14T05:11:28.217Z,17.95
2022-08-14T05:14:33.782Z,17.65
2022-08-14T05:16:46.582Z,18.10
2022-08-14T05:19:17.784Z,16.75
2022-08-14T05:22:16.660Z,17.58
2022-08-14T05:24:51.177Z,17.90
2022-08-14T05:27:22.880Z,17.85
2022-08-14T05:29:55.147Z,17.17
2022-08-14T05:32:26.873Z,17.70
2022-08-14T05:34:59.885Z,16.77
2022-08-14T05:37:29.635Z,18.52
2022-08-14T05:39:59.037Z,17.40
2022-08-14T05:42:31.761Z,17.25
2022-08-14T05:45:01.996Z,16.25
2022-08-14T05:47:38.919Z,16.35
2022-08-14T05:50:19.309Z,16.42
2022-08-14T05:52:51.470Z,16.77
2022-08-14T05:55:22.674Z,16.27
2022-08-14T05:58:02.780Z,16.35
2022-08-14T06:00:42.279Z,15.63
2022-08-14T06:03:12.498Z,14.98
2022-08-14T06:05:40.118Z,15.40
2022-08-14T06:08:41.161Z,15.82
2022-08-14T06:11:10.329Z,14.40
2022-08-14T06:13:45.565Z,14.93
2022-08-14T06:18:52.344Z,15.10
2022-08-14T06:21:22.802Z,14.43
2022-08-14T06:23:50.761Z,14.48
2022-08-14T06:26:20.443Z,13.35
2022-08-14T06:28:51.965Z,13.68
2022-08-14T06:31:21.220Z,13.73
2022-08-14T06:35:10.769Z,14.52
2022-08-14T06:36:39.369Z,14.48
2022-08-14T06:39:10.461Z,13.30
2022-08-14T06:44:30.880Z,13.23
2022-08-14T06:47:03.008Z,13.38
2022-08-14T06:49:40.465Z,12.55
2022-08-14T06:52:16.131Z,13.52
2022-08-14T06:54:44.896Z,12.32
2022-08-14T06:57:13.199Z,11.98
2022-08-14T06:59:41.483Z,12.77
2022-08-14T07:02:28.922Z,13.68
2022-08-14T07:05:21.117Z,11.90
2022-08-14T07:07:51.105Z,12.75
2022-08-14T07:10:25.328Z,12.40
2022-08-14T07:13:01.158Z,12.77
2022-08-14T07:15:34.028Z,12.52
2022-08-14T07:18:09.241Z,12.27
2022-08-14T07:20:39.347Z,13.32
2022-08-14T07:23:11.309Z,12.35
2022-08-14T07:25:51.742Z,13.02
2022-08-14T07:28:24.629Z,12.23
2022-08-14T07:31:04.942Z,11.63
2022-08-14T07:33:42.073Z,12.35
2022-08-14T07:36:26.314Z,11.85
2022-08-14T07:38:56.093Z,12.38
2022-08-14T07:41:23.756Z,12.13
2022-08-14T07:43:55.466Z,11.68
2022-08-14T07:46:41.239Z,11.68
2022-08-14T07:49:09.771Z,11.45
2022-08-14T07:51:43.150Z,11.82
2022-08-14T07:54:11.711Z,11.70
2022-08-14T07:56:47.762Z,12.73
2022-08-14T07:59:18.672Z,12.77
2022-08-14T08:01:48.029Z,11.73
2022-08-14T08:04:25.251Z,11.90
2022-08-14T08:06:55.128Z,11.35
2022-08-14T08:09:31.876Z,11.70
2022-08-14T08:12:04.984Z,11.25
2022-08-14T08:14:56.801Z,11.20
2022-08-14T08:17:24.170Z,11.40
2022-08-14T08:19:52.070Z,11.43
2022-08-14T08:22:21.372Z,11.20
2022-08-14T08:24:50.313Z,11.25
2022-08-14T08:27:22.273Z,10.82
2022-08-14T08:29:51.371Z,10.88
2022-08-14T08:32:19.224Z,10.73
2022-08-14T08:34:48.550Z,10.32
2022-08-14T08:37:17.128Z,10.87
2022-08-14T08:40:02.248Z,10.82
2022-08-14T08:42:44.691Z,11.27
2022-08-14T08:45:17.329Z,10.10
2022-08-14T08:47:46.581Z,10.10
2022-08-14T08:53:06.913Z,8.48
2022-08-14T08:55:42.454Z,8.50
2022-08-14T08:58:20.185Z,9.32
2022-08-14T09:00:55.387Z,8.20
2022-08-14T09:03:27.407Z,7.90
2022-08-14T09:05:58.122Z,7.90
2022-08-14T09:08:31.638Z,8.27
2022-08-14T09:11:19.875Z,8.63
2022-08-14T09:13:53.193Z,7.65
2022-08-14T09:16:23.574Z,8.70
2022-08-14T09:18:53.255Z,8.90
2022-08-14T09:21:24.274Z,8.95
2022-08-14T09:24:28.647Z,8.80
2022-08-14T09:26:49.373Z,8.98
2022-08-14T09:29:20.048Z,8.60
2022-08-14T09:31:58.302Z,9.50
2022-08-14T09:34:57.977Z,8.68
2022-08-14T09:37:40.874Z,8.88
2022-08-14T09:40:29.392Z,8.75
2022-08-14T09:43:26.768Z,8.45
2022-08-14T09:45:58.420Z,8.35
2022-08-14T09:48:31.191Z,11.20
2022-08-14T09:54:18.742Z,8.35
2022-08-14T09:56:43.451Z,8.68
2022-08-14T09:59:15.228Z,8.70
2022-08-14T10:01:46.217Z,8.73
2022-08-14T10:04:36.475Z,8.60
2022-08-14T10:07:08.072Z,8.63
2022-08-14T10:09:59.996Z,8.75
2022-08-14T10:12:54.743Z,8.95
2022-08-14T10:15:25.354Z,7.85
2022-08-14T10:18:13.394Z,7.88
2022-08-14T10:20:55.408Z,8.32
2022-08-14T10:23:26.078Z,8.18
2022-08-14T10:26:04.327Z,7.68
2022-08-14T10:29:18.273Z,7.90
2022-08-14T10:31:43.205Z,8.05
2022-08-14T10:34:19.051Z,7.75
2022-08-14T10:36:49.940Z,8.00
2022-08-14T10:39:26.094Z,7.97
2022-08-14T10:42:16.530Z,7.97
2022-08-14T10:44:52.564Z,8.20
2022-08-14T10:47:40.288Z,8.15
2022-08-14T10:50:12.194Z,8.00
2022-08-14T10:52:43.698Z,8.52
2022-08-14T10:55:19.487Z,8.50
2022-08-14T10:57:59.775Z,8.35
2022-08-14T11:00:30.407Z,8.23
2022-08-14T11:03:09.924Z,7.60
2022-08-14T11:05:44.007Z,8.30
2022-08-14T11:08:15.561Z,7.88
2022-08-14T11:10:48.516Z,7.50
2022-08-14T11:13:23.816Z,7.57
2022-08-14T11:15:52.766Z,7.53
2022-08-14T11:18:32.528Z,7.47
2022-08-14T11:21:07.059Z,6.60
2022-08-14T11:23:40.689Z,6.93
2022-08-14T11:26:13.361Z,6.32
2022-08-14T11:28:49.780Z,6.28
2022-08-14T11:31:23.933Z,6.55
2022-08-14T11:33:58.367Z,6.38
2022-08-14T11:37:02.894Z,6.70
2022-08-14T11:39:34.842Z,6.60
2022-08-14T11:42:55.645Z,7.28
2022-08-14T11:45:00.039Z,6.68
2022-08-14T11:47:35.149Z,6.57
2022-08-14T11:50:33.438Z,6.40
2022-08-14T11:53:04.288Z,6.13
2022-08-14T11:55:38.294Z,6.50
2022-08-14T11:58:12.024Z,6.35
2022-08-14T12:00:54.076Z,6.28
2022-08-14T12:03:37.750Z,6.13
2022-08-14T12:06:28.744Z,6.05
2022-08-14T12:09:00.039Z,5.68
2022-08-14T12:11:44.071Z,5.55
2022-08-14T12:14:30.417Z,5.78
2022-08-14T12:17:12.106Z,5.43
2022-08-14T12:19:51.596Z,5.60
2022-08-14T12:22:42.955Z,5.53
2022-08-14T12:25:20.995Z,5.47
2022-08-14T12:27:59.062Z,5.57
2022-08-14T12:30:43.271Z,5.30
2022-08-14T12:33:33.507Z,5.55
2022-08-14T12:36:08.787Z,5.43
2022-08-14T12:38:43.690Z,5.32
2022-08-14T12:41:20.514Z,6.05
2022-08-14T12:43:59.528Z,5.85
2022-08-14T12:46:41.129Z,6.50
2022-08-14T12:49:16.218Z,6.95
2022-08-14T12:51:56.186Z,7.75
2022-08-14T12:54:28.331Z,6.55
2022-08-14T12:57:18.968Z,6.65
2022-08-14T12:59:50.579Z,6.07
2022-08-14T13:02:26.955Z,5.78
2022-08-14T13:04:58.177Z,6.57
2022-08-14T13:07:32.767Z,5.80
2022-08-14T13:10:34.335Z,5.40
2022-08-14T13:13:13.139Z,5.30
2022-08-14T13:15:48.045Z,5.88
2022-08-14T13:18:26.640Z,5.68
2022-08-14T13:20:59.774Z,5.10
2022-08-14T13:23:36.483Z,5.65
2022-08-14T13:26:06.494Z,5.75
2022-08-14T13:29:00.644Z,5.30
2022-08-14T13:31:30.142Z,5.30
2022-08-14T13:33:58.659Z,5.05
2022-08-14T13:36:51.654Z,5.30
2022-08-14T13:39:22.994Z,5.35
2022-08-14T13:41:55.609Z,6.22
2022-08-14T13:44:27.300Z,5.57
2022-08-14T13:46:55.572Z,5.95
2022-08-14T13:49:23.944Z,6.03
2022-08-14T13:51:59.058Z,6.75
2022-08-14T13:54:31.239Z,5.82
2022-08-14T13:57:01.560Z,6.57
2022-08-14T13:59:38.213Z,6.55
2022-08-14T14:02:08.260Z,6.68
2022-08-14T14:04:41.631Z,6.33
2022-08-14T14:07:14.776Z,6.70
2022-08-14T14:09:51.102Z,9.95
2022-08-14T14:12:37.241Z,6.43
2022-08-14T14:15:09.974Z,6.43
2022-08-14T14:17:39.912Z,6.50
2022-08-14T14:20:34.490Z,5.93
2022-08-14T14:23:03.485Z,6.55
2022-08-14T14:25:48.073Z,5.97
2022-08-14T14:28:23.877Z,6.65
2022-08-14T14:30:57.293Z,6.47
2022-08-14T14:33:47.050Z,6.22
2022-08-14T14:36:20.992Z,5.82
2022-08-14T14:38:57.513Z,6.00
2022-08-14T14:41:27.380Z,6.47
2022-08-14T14:44:13.642Z,6.50
2022-08-14T14:46:50.209Z,7.05
2022-08-14T14:49:22.272Z,6.53
2022-08-14T14:52:00.650Z,6.47
2022-08-14T14:54:31.425Z,6.68
2022-08-14T14:57:04.016Z,6.05
2022-08-14T14:59:37.771Z,6.15
2022-08-14T15:02:07.797Z,6.30
2022-08-14T15:04:38.064Z,5.72
2022-08-14T15:07:06.830Z,6.25
2022-08-14T15:09:35.123Z,6.03
2022-08-14T15:12:16.208Z,5.70
2022-08-14T15:14:56.202Z,5.95
2022-08-14T15:17:28.427Z,5.97
2022-08-14T15:20:17.026Z,5.80
2022-08-14T15:22:51.013Z,6.45
2022-08-14T15:25:19.512Z,7.15
2022-08-14T15:27:50.206Z,6.10
2022-08-14T15:30:23.586Z,6.22
2022-08-14T15:32:53.117Z,6.20
2022-08-14T15:35:22.744Z,6.15
2022-08-14T15:37:55.912Z,6.18
2022-08-14T15:42:51.942Z,6.90
2022-08-14T15:45:21.739Z,6.78
2022-08-14T15:47:51.629Z,7.13
2022-08-14T15:50:19.669Z,7.75
2022-08-14T15:52:47.780Z,7.05
2022-08-14T15:55:16.139Z,6.97
2022-08-14T15:58:01.647Z,6.72
2022-08-14T16:00:52.447Z,8.10
2022-08-14T16:03:27.260Z,6.88
2022-08-14T16:06:17.656Z,6.53
2022-08-14T16:08:50.410Z,7.82
2022-08-14T16:11:27.325Z,7.72
2022-08-14T16:13:57.343Z,8.07
2022-08-14T16:16:49.205Z,8.50
2022-08-14T16:24:33.549Z,7.57
2022-08-14T16:27:03.576Z,7.85
2022-08-14T16:29:36.481Z,8.23
2022-08-14T16:32:32.956Z,8.15
2022-08-14T16:34:57.473Z,7.70
2022-08-14T16:37:30.863Z,8.10
2022-08-14T16:40:02.821Z,7.60
2022-08-14T16:42:38.961Z,7.65
2022-08-14T16:45:25.593Z,7.93
2022-08-14T16:47:53.544Z,7.65
2022-08-14T16:50:40.067Z,8.07
2022-08-14T16:53:09.513Z,7.78
2022-08-14T16:55:53.205Z,8.23
2022-08-14T16:58:29.610Z,7.38
2022-08-14T17:01:24.434Z,7.97
2022-08-14T17:03:56.702Z,8.88
2022-08-14T17:06:53.511Z,7.80
2022-08-14T17:09:31.963Z,7.60
2022-08-14T17:12:07.514Z,8.00
2022-08-14T17:15:10.499Z,8.18
2022-08-14T17:17:58.061Z,8.45
2022-08-14T17:20:54.112Z,8.02
2022-08-14T17:23:15.304Z,8.50
2022-08-14T17:25:51.158Z,8.52
2022-08-14T17:28:51.224Z,9.10
2022-08-14T17:31:08.236Z,8.88
2022-08-14T17:33:40.768Z,8.57
2022-08-14T17:36:24.275Z,9.15
2022-08-14T17:39:08.841Z,8.88
2022-08-14T17:41:43.643Z,8.77
2022-08-14T17:44:21.325Z,8.55
2022-08-14T17:46:55.314Z,10.82
2022-08-14T17:49:27.273Z,8.73
2022-08-14T17:52:12.185Z,8.65
2022-08-14T17:54:52.868Z,8.60
2022-08-14T17:57:28.434Z,8.95
2022-08-14T17:59:57.223Z,9.48
2022-08-14T18:02:31.214Z,8.55
2022-08-14T18:05:02.858Z,9.10
2022-08-14T18:08:00.340Z,9.25
2022-08-14T18:10:52.905Z,12.63
2022-08-14T18:13:10.774Z,9.70
2022-08-14T18:15:41.302Z,9.50
2022-08-14T18:18:11.863Z,10.00
2022-08-14T18:21:42.399Z,9.52
2022-08-14T18:23:28.591Z,10.20
2022-08-14T18:25:57.368Z,9.57
2022-08-14T18:28:48.065Z,10.23
2022-08-14T18:31:23.053Z,9.48
2022-08-14T18:34:11.687Z,9.50
2022-08-14T18:37:03.697Z,10.10
2022-08-14T18:40:02.180Z,9.38
2022-08-14T18:42:34.757Z,9.02
2022-08-14T18:45:12.732Z,9.10
2022-08-14T18:50:32.537Z,9.50
2022-08-14T18:53:10.889Z,9.63
2022-08-14T18:55:53.086Z,9.52
2022-08-14T18:58:45.613Z,9.57
2022-08-14T19:01:26.674Z,9.45
2022-08-14T19:03:57.837Z,8.98
2022-08-14T19:06:41.107Z,9.60
2022-08-14T19:09:28.927Z,9.40
2022-08-14T19:11:56.685Z,9.65
2022-08-14T19:14:45.748Z,9.35
2022-08-14T19:18:10.917Z,8.90
2022-08-14T19:20:55.531Z,9.43
2022-08-14T19:23:42.343Z,8.65
2022-08-14T19:26:35.606Z,9.18
2022-08-14T19:29:24.158Z,8.93
2022-08-14T19:31:56.299Z,8.57
2022-08-14T19:34:48.243Z,8.52
2022-08-14T19:37:52.764Z,9.10
2022-08-14T19:40:39.327Z,9.50
2022-08-14T19:43:09.317Z,8.70
2022-08-14T19:45:40.123Z,8.88
2022-08-14T19:48:15.985Z,8.70
2022-08-14T19:50:46.757Z,8.73
2022-08-14T19:56:02.184Z,7.65
2022-08-14T19:58:53.991Z,7.90
2022-08-14T20:01:37.440Z,7.22
2022-08-14T20:04:45.147Z,7.15
2022-08-14T20:06:57.292Z,7.00
2022-08-14T20:11:12.602Z,7.30
2022-08-14T20:12:34.533Z,7.25
2022-08-14T20:15:08.869Z,7.32
2022-08-14T20:17:40.766Z,7.82
2022-08-14T20:20:30.671Z,7.22
2022-08-14T20:23:11.368Z,7.07
2022-08-14T20:25:55.777Z,7.50
2022-08-14T20:28:35.877Z,7.57
2022-08-14T20:31:15.861Z,7.97
2022-08-14T20:34:19.058Z,7.95
2022-08-14T20:37:11.841Z,7.75
2022-08-14T20:39:54.649Z,7.38
2022-08-14T20:42:43.713Z,7.85
2022-08-14T20:45:24.173Z,7.22
2022-08-14T20:48:01.117Z,7.43
2022-08-14T20:50:30.200Z,7.65
2022-08-14T20:53:00.343Z,7.10
2022-08-14T20:55:32.150Z,7.37
2022-08-14T20:58:09.818Z,7.75
2022-08-14T21:01:18.816Z,7.28
2022-08-14T21:03:57.205Z,7.47
2022-08-14T21:06:27.861Z,7.32
2022-08-14T21:09:02.308Z,7.07
2022-08-14T21:11:30.572Z,6.75
2022-08-14T21:14:20.876Z,7.70
2022-08-14T21:16:58.362Z,7.35
2022-08-14T21:19:29.250Z,7.32
2022-08-14T21:21:58.531Z,8.27
2022-08-14T21:24:39.888Z,7.72
2022-08-14T21:27:22.746Z,8.05
2022-08-14T21:29:55.057Z,8.45
2022-08-14T21:32:46.952Z,8.95
2022-08-14T21:35:19.714Z,8.73
2022-08-14T21:37:53.515Z,8.45
2022-08-14T21:40:42.328Z,8.13
2022-08-14T21:43:22.842Z,9.13
2022-08-14T21:45:56.137Z,8.65
2022-08-14T21:48:32.075Z,9.10
2022-08-14T21:51:55.077Z,8.70
2022-08-14T21:53:59.337Z,11.95
2022-08-14T21:56:38.536Z,8.55
2022-08-14T21:59:34.115Z,8.48
2022-08-14T22:02:05.568Z,8.68
2022-08-14T22:04:40.426Z,8.32
2022-08-14T22:07:17.278Z,8.05
2022-08-14T22:09:55.025Z,8.35
2022-08-14T22:12:58.484Z,9.32
2022-08-14T22:15:14.859Z,8.75
2022-08-14T22:17:44.098Z,9.05
2022-08-14T22:20:16.202Z,9.02
2022-08-14T22:22:44.956Z,9.55
2022-08-14T22:25:17.228Z,9.45
2022-08-14T22:27:56.282Z,9.40
2022-08-14T22:30:25.513Z,9.40
2022-08-14T22:32:57.768Z,9.80
2022-08-14T22:35:27.065Z,9.30
2022-08-14T22:38:36.026Z,9.40
2022-08-14T22:41:12.548Z,9.20
2022-08-14T22:43:35.080Z,8.93
2022-08-14T22:46:06.094Z,9.30
2022-08-14T22:48:43.249Z,9.02
2022-08-14T22:51:14.970Z,8.40
2022-08-14T22:53:48.302Z,9.32
2022-08-14T22:56:20.365Z,8.73
2022-08-14T22:58:53.675Z,9.77
2022-08-14T23:01:55.776Z,9.55
2022-08-14T23:04:34.425Z,9.73
2022-08-14T23:07:07.302Z,9.43
2022-08-14T23:09:56.008Z,9.25
2022-08-14T23:12:34.997Z,9.93
2022-08-14T23:15:02.689Z,9.73
2022-08-14T23:17:39.625Z,9.70
2022-08-14T23:20:18.783Z,9.27
2022-08-14T23:22:51.184Z,9.48
2022-08-14T23:25:44.542Z,10.05
2022-08-14T23:28:35.017Z,9.68
2022-08-14T23:30:58.552Z,9.57
2022-08-14T23:33:28.762Z,9.88
2022-08-14T23:35:58.883Z,9.73
2022-08-14T23:38:30.674Z,9.18
2022-08-14T23:41:04.117Z,9.13
2022-08-14T23:43:32.646Z,9.55
2022-08-14T23:46:00.858Z,10.30
2022-08-14T23:48:29.269Z,9.30
2022-08-14T23:51:00.177Z,9.57
2022-08-14T23:53:47.382Z,9.77
2022-08-14T23:56:31.898Z,9.32
2022-08-14T23:59:01.453Z,9.85
